Time;durP1;ratioP1;P1;durP2;ratioP2;P2;SDS_P1;SDS_P2;PMS_P1;PMS_P2;Temp;Humidity;BMP_temperature;BMP_pressure;BME280_temperature;BME280_humidity;BME280_pressure;Samples;Min_cycle;Max_cycle;Signal;HPM_P1;HPM_P2
2022/04/14 00:01:53;;;;;;;6.00;3.83;;;;;;;;;;4377781;32;20078;-68
2022/04/14 00:04:20;;;;;;;4.65;3.65;;;;;;;;;;4377401;32;20098;-67
2022/04/14 00:06:47;;;;;;;6.28;3.60;;;;;;;;;;4378088;32;20061;-68
2022/04/14 00:09:13;;;;;;;6.53;3.55;;;8.80;99.90;;;;;;4377685;32;20516;-67
2022/04/14 00:11:40;;;;;;;6.32;3.80;;;;;;;;;;4377917;32;20086;-67
2022/04/14 00:14:07;;;;;;;5.40;3.17;;;;;;;;;;4377616;32;20066;-67
2022/04/14 00:16:33;;;;;;;5.22;3.87;;;;;;;;;;4375967;32;20073;-67
2022/04/14 00:19:00;;;;;;;4.82;3.42;;;;;;;;;;4384376;32;20077;-67
2022/04/14 00:21:27;;;;;;;6.87;3.53;;;;;;;;;;4375583;32;20079;-67
2022/04/14 00:23:53;;;;;;;5.75;3.55;;;;;;;;;;4384811;32;20511;-74
2022/04/14 00:26:20;;;;;;;5.97;3.85;;;;;;;;;;4376302;32;20093;-66
2022/04/14 00:28:47;;;;;;;7.47;3.90;;;;;;;;;;4363525;32;20086;-68
2022/04/14 00:31:13;;;;;;;5.37;3.67;;;;;;;;;;4363366;32;20083;-67
2022/04/14 00:33:40;;;;;;;5.12;3.65;;;;;;;;;;4377146;32;20600;-67
2022/04/14 00:36:07;;;;;;;8.00;4.03;;;;;;;;;;4377089;32;20137;-68
2022/04/14 00:38:33;;;;;;;5.55;4.18;;;;;;;;;;4374794;32;20558;-68
2022/04/14 00:41:00;;;;;;;5.15;3.72;;;;;;;;;;4377249;32;20089;-67
2022/04/14 00:43:31;;;;;;;5.65;4.03;;;;;;;;;;4377103;32;20080;-67
2022/04/14 00:46:01;;;;;;;6.03;4.22;;;;;;;;;;4363181;32;20653;-67
2022/04/14 00:48:29;;;;;;;6.25;4.32;;;;;;;;;;4376583;32;20230;-67
2022/04/14 00:50:56;;;;;;;6.80;4.80;;;;;;;;;;4375376;32;20600;-67
2022/04/14 00:53:23;;;;;;;6.57;4.82;;;;;;;;;;4362882;32;20173;-68
2022/04/14 00:55:51;;;;;;;5.45;4.00;;;;;;;;;;4363692;32;20083;-67
2022/04/14 00:58:17;;;;;;;6.57;4.28;;;;;;;;;;4362654;32;20584;-67
2022/04/14 01:00:44;;;;;;;8.27;5.20;;;;;;;;;;4375428;32;20074;-67
2022/04/14 01:03:11;;;;;;;6.65;5.00;;;;;;;;;;4377058;32;20082;-67
2022/04/14 01:05:38;;;;;;;13.30;7.35;;;;;;;;;;4375847;32;20078;-68
2022/04/14 01:08:05;;;;;;;16.20;8.65;;;;;;;;;;4375312;32;20085;-67
2022/04/14 01:10:50;;;;;;;13.48;7.25;;;;;;;;;;3857264;37;20063;-67
2022/04/14 01:13:18;;;;;;;12.48;6.70;;;;;;;;;;4418761;32;20170;-67
2022/04/14 01:15:45;;;;;;;12.32;6.87;;;;;;;;;;4419614;32;20173;-67
2022/04/14 01:18:12;;;;;;;10.13;6.03;;;;;;;;;;4418547;32;20240;-67
2022/04/14 01:20:41;;;;;;;11.23;5.97;;;;;;;;;;4419025;32;20157;-66
2022/04/14 01:23:10;;;;;;;8.93;5.15;;;8.30;99.90;;;;;;4418389;32;20077;-68
2022/04/14 01:25:38;;;;;;;8.98;5.70;;;;;;;;;;4405463;32;20589;-67
2022/04/14 01:28:06;;;;;;;10.45;5.78;;;;;;;;;;4419669;32;20084;-67
2022/04/14 01:30:32;;;;;;;9.02;5.60;;;;;;;;;;4419579;32;20102;-67
2022/04/14 01:32:59;;;;;;;13.57;6.65;;;;;;;;;;4405594;32;20076;-68
2022/04/14 01:35:26;;;;;;;10.57;5.85;;;;;;;;;;4419651;32;20073;-66
2022/04/14 01:37:52;;;;;;;8.43;5.45;;;;;;;;;;4417882;32;20081;-67
2022/04/14 01:40:19;;;;;;;8.25;5.37;;;;;;;;;;4405681;32;20089;-68
2022/04/14 01:42:46;;;;;;;9.63;5.55;;;;;;;;;;4405004;32;20471;-67
2022/04/14 01:45:12;;;;;;;9.00;5.37;;;;;;;;;;4417872;32;20161;-67
2022/04/14 01:47:40;;;;;;;9.95;5.20;;;;;;;;;;4419534;32;20153;-67
2022/04/14 01:50:09;;;;;;;7.05;5.15;;;8.20;99.90;;;;;;4405157;32;20169;-68
2022/04/14 01:52:36;;;;;;;10.13;5.80;;;8.20;99.90;;;;;;4419652;32;20069;-67
2022/04/14 01:55:04;;;;;;;7.47;4.68;;;;;;;;;;4422413;32;20088;-67
2022/04/14 01:57:31;;;;;;;8.65;5.40;;;7.90;99.90;;;;;;4426673;32;20093;-67
2022/04/14 01:59:58;;;;;;;9.30;5.60;;;;;;;;;;4424149;32;20073;-67
2022/04/14 02:02:25;;;;;;;13.65;6.18;;;;;;;;;;4425105;32;20163;-67
2022/04/14 02:04:52;;;;;;;10.68;6.40;;;;;;;;;;4409948;32;20084;-66
2022/04/14 02:07:19;;;;;;;11.20;6.55;;;;;;;;;;4418414;32;20076;-67
2022/04/14 02:09:45;;;;;;;8.43;5.32;;;8.10;99.90;;;;;;4418159;32;20079;-67
2022/04/14 02:12:12;;;;;;;9.70;5.70;;;8.20;99.90;;;;;;4405742;32;20152;-68
2022/04/14 02:14:40;;;;;;;13.60;6.57;;;;;;;;;;4420237;32;20065;-67
2022/04/14 02:17:06;;;;;;;10.75;6.18;;;;;;;;;;4418826;32;20155;-67
2022/04/14 02:19:33;;;;;;;13.35;5.57;;;;;;;;;;4405807;32;20085;-67
2022/04/14 02:22:00;;;;;;;10.80;5.93;;;;;;;;;;4396243;32;20066;-68
2022/04/14 02:24:27;;;;;;;8.45;4.87;;;;;;;;;;4408565;32;20061;-68
2022/04/14 02:26:55;;;;;;;6.75;5.05;;;;;;;;;;4407199;32;20093;-68
2022/04/14 02:29:22;;;;;;;8.32;5.18;;;;;;;;;;4407731;32;20077;-67
2022/04/14 02:31:48;;;;;;;6.90;4.70;;;;;;;;;;4408909;32;20165;-67
2022/04/14 02:34:15;;;;;;;7.70;5.22;;;;;;;;;;4407405;32;20087;-67
2022/04/14 02:36:42;;;;;;;7.05;5.00;;;;;;;;;;4408319;32;20080;-67
2022/04/14 02:39:09;;;;;;;7.72;5.03;;;;;;;;;;4408113;32;20096;-67
2022/04/14 02:41:36;;;;;;;7.65;4.40;;;;;;;;;;4408677;32;20514;-67
2022/04/14 02:44:03;;;;;;;7.95;5.20;;;;;;;;;;4408804;32;20077;-68
2022/04/14 02:46:29;;;;;;;8.38;4.80;;;;;;;;;;4406516;32;20515;-67
2022/04/14 02:48:56;;;;;;;8.80;5.03;;;;;;;;;;4394994;32;20074;-68
2022/04/14 02:51:22;;;;;;;10.10;5.22;;;;;;;;;;4406888;32;20085;-67
2022/04/14 02:53:49;;;;;;;7.57;5.25;;;;;;;;;;4408025;32;20152;-67
2022/04/14 02:56:16;;;;;;;8.73;5.50;;;;;;;;;;4408536;32;20073;-67
2022/04/14 02:58:42;;;;;;;9.10;5.55;;;;;;;;;;4408249;32;20076;-67
2022/04/14 03:01:09;;;;;;;9.40;5.93;;;;;;;;;;4408136;32;20513;-67
2022/04/14 03:03:35;;;;;;;10.27;6.28;;;;;;;;;;4407050;32;20085;-66
2022/04/14 03:06:02;;;;;;;8.98;6.62;;;;;;;;;;4408051;32;20085;-67
2022/04/14 03:08:29;;;;;;;11.30;7.53;;;;;;;;;;4407435;32;20149;-66
2022/04/14 03:10:55;;;;;;;8.10;5.47;;;;;;;;;;4407011;32;20165;-67
2022/04/14 03:13:22;;;;;;;9.27;6.28;;;;;;;;;;4406718;32;20091;-68
2022/04/14 03:15:49;;;;;;;9.57;5.75;;;;;;;;;;4406710;32;20070;-67
2022/04/14 03:18:16;;;;;;;11.50;5.78;;;9.10;99.90;;;;;;4393852;32;20186;-68
2022/04/14 03:20:42;;;;;;;9.25;5.53;;;8.90;99.90;;;;;;4406819;32;20072;-67
2022/04/14 03:23:09;;;;;;;8.35;4.90;;;8.80;99.90;;;;;;4406272;32;20131;-67
2022/04/14 03:25:35;;;;;;;8.15;5.10;;;;;;;;;;4407558;32;20081;-67
2022/04/14 03:28:02;;;;;;;7.68;5.78;;;;;;;;;;4421024;32;20072;-67
2022/04/14 03:30:28;;;;;;;6.50;5.15;;;;;;;;;;4413701;32;20080;-67
2022/04/14 03:32:55;;;;;;;8.43;5.87;;;;;;;;;;4406977;32;20152;-67
2022/04/14 03:35:22;;;;;;;6.80;5.00;;;;;;;;;;4407529;32;20169;-68
2022/04/14 03:37:48;;;;;;;8.00;5.00;;;;;;;;;;4393635;32;20499;-68
2022/04/14 03:40:15;;;;;;;8.68;5.03;;;;;;;;;;4407910;32;20077;-67
2022/04/14 03:42:42;;;;;;;6.28;4.43;;;;;;;;;;4407574;32;20458;-68
2022/04/14 03:45:09;;;;;;;8.63;5.53;;;;;;;;;;4406162;32;20073;-68
2022/04/14 03:47:36;;;;;;;6.68;4.32;;;;;;;;;;4406235;32;20084;-68
2022/04/14 03:50:03;;;;;;;7.40;4.70;;;;;;;;;;4407043;32;20089;-66
2022/04/14 03:52:30;;;;;;;7.95;4.85;;;;;;;;;;4406011;32;20148;-67
2022/04/14 03:54:57;;;;;;;6.65;4.75;;;;;;;;;;4407394;32;20062;-68
2022/04/14 03:57:25;;;;;;;7.85;5.47;;;;;;;;;;4406054;32;20111;-68
2022/04/14 03:59:51;;;;;;;8.52;5.32;;;;;;;;;;4406196;32;20484;-68
2022/04/14 04:02:18;;;;;;;8.00;5.20;;;;;;;;;;4405737;32;20092;-68
2022/04/14 04:04:45;;;;;;;9.55;5.65;;;;;;;;;;4405516;32;20077;-67
2022/04/14 04:07:11;;;;;;;10.93;5.40;;;;;;;;;;4405902;32;20100;-68
2022/04/14 04:09:38;;;;;;;8.63;5.75;;;;;;;;;;4405548;32;20089;-68
2022/04/14 04:12:06;;;;;;;9.50;5.80;;;;;;;;;;4406256;32;20095;-68
2022/04/14 04:14:32;;;;;;;9.07;5.72;;;;;;;;;;4393073;32;20598;-67
2022/04/14 04:16:59;;;;;;;7.62;4.75;;;;;;;;;;4405613;32;20081;-67
2022/04/14 04:19:26;;;;;;;8.48;4.47;;;;;;;;;;4406976;32;20168;-67
2022/04/14 04:21:53;;;;;;;10.15;5.70;;;;;;;;;;4406925;32;20119;-67
2022/04/14 04:24:19;;;;;;;7.30;5.22;;;;;;;;;;4407215;32;20157;-67
2022/04/14 04:26:46;;;;;;;7.95;4.90;;;;;;;;;;4406168;32;20165;-68
2022/04/14 04:29:13;;;;;;;9.30;5.78;;;;;;;;;;4406756;32;20062;-68
2022/04/14 04:31:39;;;;;;;10.13;5.62;;;;;;;;;;4405283;32;20121;-68
2022/04/14 04:34:06;;;;;;;8.40;6.00;;;;;;;;;;4405388;32;20549;-69
2022/04/14 04:36:32;;;;;;;9.13;5.20;;;;;;;;;;4392959;32;20603;-69
2022/04/14 04:39:01;;;;;;;9.98;5.70;;;;;;;;;;4393089;32;20512;-67
2022/04/14 04:41:28;;;;;;;7.90;5.55;;;;;;;;;;4405107;32;20073;-67
2022/04/14 04:43:55;;;;;;;9.85;5.45;;;;;;;;;;4406284;32;20579;-69
2022/04/14 04:46:22;;;;;;;8.52;5.07;;;;;;;;;;4392466;32;20093;-72
2022/04/14 04:48:48;;;;;;;9.10;5.07;;;;;;;;;;4405451;32;20077;-70
2022/04/14 04:51:16;;;;;;;8.55;5.03;;;;;;;;;;4405057;32;20096;-68
2022/04/14 04:53:42;;;;;;;9.70;5.43;;;;;;;;;;4392478;32;20524;-67
2022/04/14 04:56:09;;;;;;;7.80;4.68;;;;;;;;;;4380048;32;20089;-68
2022/04/14 04:58:35;;;;;;;8.35;4.62;;;;;;;;;;4379937;32;20078;-72
2022/04/14 05:01:03;;;;;;;7.57;5.03;;;;;;;;;;4406531;32;20164;-72
2022/04/14 05:03:30;;;;;;;8.00;5.07;;;;;;;;;;4392506;32;20174;-70
2022/04/14 05:05:57;;;;;;;7.95;5.15;;;;;;;;;;4405109;32;20077;-69
2022/04/14 05:08:23;;;;;;;8.90;5.37;;;;;;;;;;4405278;32;20158;-68
2022/04/14 05:10:51;;;;;;;8.55;5.55;;;;;;;;;;4404830;32;20081;-71
2022/04/14 05:13:18;;;;;;;9.07;5.80;;;;;;;;;;4406311;32;20089;-72
2022/04/14 05:15:44;;;;;;;6.97;4.65;;;;;;;;;;4392379;32;20074;-70
2022/04/14 05:18:11;;;;;;;8.40;5.15;;;;;;;;;;4405011;32;20137;-69
2022/04/14 05:20:39;;;;;;;9.45;5.32;;;;;;;;;;4405285;32;20077;-69
2022/04/14 05:23:10;;;;;;;10.35;4.78;;;;;;;;;;4406515;32;20101;-64
2022/04/14 05:25:40;;;;;;;7.12;4.47;;;;;;;;;;4405063;32;20077;-62
2022/04/14 05:28:07;;;;;;;10.18;5.47;;;;;;;;;;4392197;32;20084;-64
2022/04/14 05:30:33;;;;;;;11.07;6.12;;;;;;;;;;4405430;32;20169;-63
2022/04/14 05:33:00;;;;;;;10.77;6.10;;;;;;;;;;4404875;32;20089;-64
2022/04/14 05:35:27;;;;;;;13.07;6.32;;;;;;;;;;4405430;32;20089;-64
2022/04/14 05:37:53;;;;;;;11.18;5.37;;;;;;;;;;4404402;32;20081;-63
2022/04/14 05:40:20;;;;;;;9.02;5.50;;;;;;;;;;4379954;32;20174;-64
2022/04/14 05:42:47;;;;;;;10.57;6.20;;;;;;;;;;4406240;32;20160;-64
2022/04/14 05:45:14;;;;;;;13.07;6.97;;;;;;;;;;4404748;32;20077;-63
2022/04/14 05:47:41;;;;;;;9.65;4.85;;;;;;;;;;4404720;32;20113;-61
2022/04/14 05:50:08;;;;;;;8.88;5.50;;;;;;;;;;4404803;32;20138;-64
2022/04/14 05:52:34;;;;;;;13.18;6.85;;;;;;;;;;4392307;32;20069;-62
2022/04/14 05:55:04;;;;;;;11.65;6.78;;;;;;;;;;4406247;32;20093;-63
2022/04/14 05:57:31;;;;;;;12.25;7.05;;;;;;;;;;4407345;32;20573;-63
2022/04/14 05:59:58;;;;;;;13.60;6.60;;;;;;;;;;4395622;32;20494;-63
2022/04/14 06:02:26;;;;;;;7.93;5.78;;;;;;;;;;4394852;32;20104;-62
2022/04/14 06:04:53;;;;;;;11.52;6.57;;;;;;;;;;4395210;32;20507;-65
2022/04/14 06:07:20;;;;;;;11.45;6.45;;;;;;;;;;4408728;32;20169;-66
2022/04/14 06:09:46;;;;;;;12.10;7.57;;;;;;;;;;4394710;32;20172;-66
2022/04/14 06:12:13;;;;;;;17.35;7.43;;;;;;;;;;4407477;32;20160;-65
2022/04/14 06:14:40;;;;;;;12.70;7.75;;;;;;;;;;4407509;32;20077;-65
2022/04/14 06:17:06;;;;;;;11.63;6.50;;;;;;;;;;4407212;32;20168;-66
2022/04/14 06:19:33;;;;;;;10.98;6.12;;;;;;;;;;4407459;32;20078;-65
2022/04/14 06:22:00;;;;;;;10.80;5.50;;;;;;;;;;4382292;32;20522;-65
2022/04/14 06:24:26;;;;;;;10.88;5.70;;;;;;;;;;4408590;32;20144;-67
2022/04/14 06:26:53;;;;;;;13.10;6.50;;;;;;;;;;4382075;32;20458;-65
2022/04/14 06:29:20;;;;;;;13.05;6.18;;;;;;;;;;4407071;32;20138;-65
2022/04/14 06:31:46;;;;;;;13.98;6.53;;;;;;;;;;4394129;32;20563;-67
2022/04/14 06:34:13;;;;;;;14.82;7.60;;;;;;;;;;4394420;32;20093;-66
2022/04/14 06:36:40;;;;;;;16.25;7.32;;;;;;;;;;4407269;32;20093;-66
2022/04/14 06:39:12;;;;;;;12.98;6.85;;;;;;;;;;4413589;32;20136;-69
2022/04/14 06:41:39;;;;;;;12.35;7.55;;;;;;;;;;4415746;32;20066;-67
2022/04/14 06:44:06;;;;;;;19.92;7.75;;;;;;;;;;4394536;32;20062;-66
2022/04/14 06:46:33;;;;;;;11.45;5.95;;;;;;;;;;4394337;32;20478;-66
2022/04/14 06:49:00;;;;;;;13.40;7.30;;;;;;;;;;4394208;32;20165;-65
2022/04/14 06:51:26;;;;;;;16.30;8.15;;;;;;;;;;4407265;32;20502;-67
2022/04/14 06:53:53;;;;;;;15.65;8.40;;;;;;;;;;4406895;32;20093;-69
2022/04/14 06:56:19;;;;;;;14.80;8.15;;;;;;;;;;4393621;32;20532;-65
2022/04/14 06:58:46;;;;;;;25.42;10.85;;;;;;;;;;4393884;32;20103;-66
2022/04/14 07:01:13;;;;;;;15.70;8.77;;;;;;;;;;4394564;32;20081;-66
2022/04/14 07:03:39;;;;;;;15.88;10.10;;;;;;;;;;4406994;32;20592;-66
2022/04/14 07:06:06;;;;;;;17.17;8.30;;;;;;;;;;4394254;32;20165;-66
2022/04/14 07:08:33;;;;;;;11.15;5.30;;;;;;;;;;4406456;32;20507;-67
2022/04/14 07:11:01;;;;;;;12.02;5.40;;;;;;;;;;4407413;32;20070;-66
2022/04/14 07:13:28;;;;;;;9.23;4.97;;;;;;;;;;4407151;32;20088;-67
2022/04/14 07:15:55;;;;;;;11.18;5.30;;;;;;;;;;4408037;32;20081;-67
2022/04/14 07:18:23;;;;;;;8.45;5.12;;;;;;;;;;4406417;32;20080;-66
2022/04/14 07:20:49;;;;;;;10.18;4.55;;;;;;;;;;4408365;32;20101;-68
2022/04/14 07:23:16;;;;;;;10.88;4.95;;;;;;;;;;4406632;32;20105;-67
2022/04/14 07:25:43;;;;;;;13.13;5.60;;;;;;;;;;4406418;32;20070;-68
2022/04/14 07:28:09;;;;;;;11.02;5.35;;;;;;;;;;4407530;32;20073;-66
2022/04/14 07:30:38;;;;;;;15.35;6.45;;;;;;;;;;4393540;32;20093;-67
2022/04/14 07:33:05;;;;;;;14.60;6.03;;;;;;;;;;4405912;32;20507;-68
2022/04/14 07:35:32;;;;;;;7.50;4.70;;;;;;;;;;4406513;32;20591;-65
2022/04/14 07:37:59;;;;;;;10.55;5.45;;;;;;;;;;4393494;32;20073;-66
2022/04/14 07:40:26;;;;;;;9.90;5.78;;;;;;;;;;4393927;32;20153;-66
2022/04/14 07:42:56;;;;;;;11.73;5.30;;;;;;;;;;4405881;32;20085;-67
2022/04/14 07:45:23;;;;;;;10.90;5.22;;;;;;;;;;4405836;32;20097;-66
2022/04/14 07:47:50;;;;;;;14.87;6.05;;;;;;;;;;4393703;32;20072;-67
2022/04/14 07:50:21;;;;;;;12.63;6.50;;;;;;;;;;4407001;32;20081;-67
2022/04/14 07:52:55;;;;;;;13.48;6.90;;;;;;;;;;4405793;32;20092;-66
2022/04/14 07:55:24;;;;;;;12.57;6.30;;;;;;;;;;4393282;32;20583;-65
2022/04/14 07:57:52;;;;;;;11.93;6.32;;;;;;;;;;4405817;32;20081;-67
2022/04/14 08:00:19;;;;;;;11.10;6.25;;;;;;;;;;4405790;32;20081;-66
2022/04/14 08:02:48;;;;;;;9.95;5.53;;;;;;;;;;4406485;32;20495;-67
2022/04/14 08:05:14;;;;;;;12.32;6.32;;;;;;;;;;4406084;32;20178;-66
2022/04/14 08:07:41;;;;;;;12.13;5.78;;;;;;;;;;4406216;32;20084;-68
2022/04/14 08:10:08;;;;;;;10.82;5.10;;;;;;;;;;4405712;32;20095;-66
2022/04/14 08:12:35;;;;;;;11.90;5.82;;;;;;;;;;4380396;32;20188;-65
2022/04/14 08:15:01;;;;;;;11.95;4.90;;;;;;;;;;4393278;32;20085;-66
2022/04/14 08:17:28;;;;;;;9.88;5.00;;;;;;;;;;4405773;32;20096;-65
2022/04/14 08:19:54;;;;;;;12.63;6.05;;;;;;;;;;4406947;32;20145;-66
2022/04/14 08:22:21;;;;;;;10.85;5.15;;;;;;;;;;4392650;32;20082;-65
2022/04/14 08:24:50;;;;;;;16.65;6.00;;;;;;;;;;4405488;32;20157;-67
2022/04/14 08:27:18;;;;;;;10.80;5.75;;;;;;;;;;4405080;32;20511;-66
2022/04/14 08:29:44;;;;;;;9.75;5.22;;;;;;;;;;4406801;32;20077;-66
2022/04/14 08:32:11;;;;;;;11.23;6.32;;;;;;;;;;4405570;32;20177;-66
2022/04/14 08:34:38;;;;;;;10.02;5.53;;;;;;;;;;4405447;32;20208;-67
2022/04/14 08:37:05;;;;;;;14.20;6.25;;;;;;;;;;4405623;32;20095;-66
2022/04/14 08:39:32;;;;;;;13.05;5.95;;;;;;;;;;4405227;32;20069;-66
2022/04/14 08:42:05;;;;;;;8.88;5.47;;;;;;;;;;4405696;32;20075;-67
2022/04/14 08:44:37;;;;;;;16.58;5.28;;;;;;;;;;4406916;32;20514;-66
2022/04/14 08:47:06;;;;;;;12.80;6.18;;;;;;;;;;4411395;32;20092;-67
2022/04/14 08:49:33;;;;;;;11.30;4.97;;;;;;;;;;4414432;32;20717;-66
2022/04/14 08:52:00;;;;;;;11.30;5.12;;;;;;;;;;4401881;32;20086;-66
2022/04/14 08:54:26;;;;;;;10.15;4.68;;;;;;;;;;4407924;32;20137;-71
2022/04/14 08:56:58;;;;;;;11.60;5.22;;;;;;;;;;4406163;32;20275;-68
2022/04/14 08:59:25;;;;;;;8.20;4.43;;;;;;;;;;4393354;32;20085;-70
2022/04/14 09:01:52;;;;;;;10.55;5.28;;;;;;;;;;4405298;32;20080;-69
2022/04/14 09:04:19;;;;;;;11.25;4.93;;;;;;;;;;4397026;32;20064;-67
2022/04/14 09:06:45;;;;;;;11.77;5.62;;;;;;;;;;4395439;32;20085;-65
2022/04/14 09:09:12;;;;;;;12.48;5.18;;;;;;;;;;4397891;32;20636;-65
2022/04/14 09:11:39;;;;;;;18.65;6.03;;;;;;;;;;4391675;32;20146;-66
2022/04/14 09:14:06;;;;;;;12.27;6.40;;;;;;;;;;4390169;32;20153;-65
2022/04/14 09:16:33;;;;;;;10.95;5.53;;;;;;;;;;4390579;32;20478;-67
2022/04/14 09:19:05;;;;;;;12.95;5.45;;;;;;;;;;4402048;32;20194;-65
2022/04/14 09:21:33;;;;;;;12.98;5.80;;;;;;;;;;4391709;32;20485;-67
2022/04/14 09:24:00;;;;;;;10.13;5.28;;;;;;;;;;4398552;32;20081;-65
2022/04/14 09:26:27;;;;;;;13.43;5.45;;;;;;;;;;4404655;32;20077;-68
2022/04/14 09:29:12;;;;;;;9.85;5.07;;;;;;;;;;4405077;32;20157;-69
2022/04/14 09:31:47;;;;;;;11.52;5.72;;;;;;;;;;4407978;32;20069;-67
2022/04/14 09:34:18;;;;;;;8.25;4.93;;;;;;;;;;4399774;32;20504;-68
2022/04/14 09:37:04;;;;;;;8.45;5.05;;;;;;;;;;4404841;32;20061;-67
2022/04/14 09:39:34;;;;;;;8.05;4.18;;;;;;;;;;4398487;32;20153;-68
2022/04/14 09:42:13;;;;;;;11.38;4.53;;;;;;;;;;4395103;32;20096;-69
2022/04/14 09:44:39;;;;;;;9.40;4.72;;;;;;;;;;4401237;32;20089;-68
2022/04/14 09:47:06;;;;;;;7.47;4.65;;;;;;;;;;4404188;32;20070;-69
2022/04/14 09:49:34;;;;;;;9.32;4.72;;;;;;;;;;4395518;32;20078;-67
2022/04/14 09:52:07;;;;;;;7.57;5.00;;;;;;;;;;4385263;32;20069;-66
2022/04/14 09:54:34;;;;;;;7.70;4.57;;;;;;;;;;4390166;32;20181;-66
2022/04/14 09:57:01;;;;;;;6.82;4.32;;;;;;;;;;4395072;32;20206;-73
2022/04/14 09:59:31;;;;;;;10.13;4.62;;;;;;;;;;4397553;32;20771;-64
2022/04/14 10:02:17;;;;;;;8.60;4.50;;;;;;;;;;4400546;32;20566;-65
2022/04/14 10:04:46;;;;;;;6.45;3.90;;;;;;;;;;4393113;32;20088;-66
2022/04/14 10:07:20;;;;;;;9.23;4.40;;;;;;;;;;4403050;32;20488;-65
2022/04/14 10:09:48;;;;;;;7.72;4.18;;;;;;;;;;4398898;32;20090;-65
2022/04/14 10:12:17;;;;;;;5.85;3.58;;;;;;;;;;4394466;32;20078;-64
2022/04/14 10:14:57;;;;;;;6.85;4.12;;;;;;;;;;4392360;32;20092;-64
2022/04/14 10:17:25;;;;;;;8.25;3.80;;;;;;;;;;4394187;32;20065;-66
2022/04/14 10:19:52;;;;;;;7.82;4.05;;;;;;;;;;4391754;32;20219;-64
2022/04/14 10:22:19;;;;;;;10.07;3.90;;;;;;;;;;4397664;32;20073;-72
2022/04/14 10:24:55;;;;;;;4.93;3.25;;;;;;;;;;4391881;32;20088;-69
2022/04/14 10:27:25;;;;;;;5.25;3.78;;;;;;;;;;4394348;32;20089;-64
2022/04/14 10:29:52;;;;;;;6.20;3.17;;;;;;;;;;4395357;32;20093;-65
2022/04/14 10:32:19;;;;;;;6.93;3.72;;;;;;;;;;4392722;32;20073;-64
2022/04/14 10:34:47;;;;;;;4.62;3.25;;;;;;;;;;4407932;32;20192;-65
2022/04/14 10:37:20;;;;;;;8.10;3.12;;;;;;;;;;4394444;32;20094;-66
2022/04/14 10:39:49;;;;;;;5.82;3.40;;;;;;;;;;4385684;32;20157;-65
2022/04/14 10:42:18;;;;;;;4.70;2.90;;;;;;;;;;4397788;32;20066;-66
2022/04/14 10:44:47;;;;;;;4.25;3.10;;;;;;;;;;4399480;32;20073;-64
2022/04/14 10:47:42;;;;;;;7.15;3.35;;;;;;;;;;4402510;32;20093;-64
2022/04/14 10:50:25;;;;;;;6.90;3.47;;;;;;;;;;4406727;32;20084;-65
2022/04/14 10:53:21;;;;;;;6.10;3.20;;;;;;;;;;4402002;32;20069;-66
2022/04/14 10:55:50;;;;;;;5.60;3.37;;;;;;;;;;4370840;32;20073;-66
2022/04/14 10:58:35;;;;;;;6.32;3.20;;;;;;;;;;4391888;32;20153;-64
2022/04/14 11:01:02;;;;;;;5.05;3.00;;;;;;;;;;4404710;32;20539;-65
2022/04/14 11:03:47;;;;;;;5.07;3.10;;;;;;;;;;4394009;32;20078;-65
2022/04/14 11:06:45;;;;;;;6.45;3.35;;;;;;;;;;4393202;32;20073;-66
2022/04/14 11:09:51;;;;;;;5.93;3.40;;;;;;;;;;4404470;32;20488;-64
2022/04/14 11:12:25;;;;;;;5.62;3.65;;;;;;;;;;4348637;32;20517;-64
2022/04/14 11:14:57;;;;;;;6.70;2.70;;;;;;;;;;4390027;32;20076;-65
2022/04/14 11:17:42;;;;;;;5.75;3.15;;;;;;;;;;4379716;32;20062;-64
2022/04/14 11:20:35;;;;;;;6.40;3.70;;;;;;;;;;4393019;32;20054;-66
2022/04/14 11:23:27;;;;;;;4.85;2.75;;;;;;;;;;4399439;32;20112;-65
2022/04/14 11:26:04;;;;;;;4.53;2.60;;;;;;;;;;4390987;32;20086;-64
2022/04/14 11:28:36;;;;;;;4.15;3.00;;;;;;;;;;4399944;32;20536;-66
2022/04/14 11:31:23;;;;;;;5.05;2.90;;;;;;;;;;4393084;32;20577;-65
2022/04/14 11:33:52;;;;;;;5.62;3.15;;;;;;;;;;4399360;32;20141;-64
2022/04/14 11:36:25;;;;;;;4.72;2.78;;;;;;;;;;4390386;32;20429;-61
2022/04/14 11:38:51;;;;;;;7.60;3.70;;;;;;;;;;4390991;32;20086;-65
2022/04/14 11:41:34;;;;;;;7.15;3.28;;;;;;;;;;4400933;32;20153;-65
2022/04/14 11:44:05;;;;;;;6.45;2.90;;;;;;;;;;4402269;32;20167;-65
2022/04/14 11:46:33;;;;;;;4.78;3.08;;;;;;;;;;4391067;32;20082;-64
2022/04/14 11:49:01;;;;;;;7.82;3.17;;;;;;;;;;4388027;32;20500;-64
2022/04/14 11:51:27;;;;;;;4.62;3.55;;;;;;;;;;4390674;32;20104;-65
2022/04/14 11:53:56;;;;;;;6.07;3.50;;;;;;;;;;4377194;32;20082;-67
2022/04/14 11:56:24;;;;;;;3.92;3.08;;;;;;;;;;4390525;32;20077;-65
2022/04/14 11:58:52;;;;;;;4.82;3.40;;;;;;;;;;4392143;32;20093;-65
2022/04/14 12:01:18;;;;;;;6.97;3.42;;;;;;;;;;4393248;32;20492;-65
2022/04/14 12:03:45;;;;;;;8.18;3.75;;;;;;;;;;4391763;32;20153;-65
2022/04/14 12:06:16;;;;;;;5.75;3.53;;;;;;;;;;4377255;32;20117;-63
2022/04/14 12:08:53;;;;;;;6.95;3.60;;;;;;;;;;4390488;32;20508;-64
2022/04/14 12:11:20;;;;;;;7.28;3.50;;;;;;;;;;4394402;32;20080;-65
2022/04/14 12:13:47;;;;;;;6.87;3.60;;;;;;;;;;4413361;32;20112;-65
2022/04/14 12:16:14;;;;;;;5.60;3.83;;;;;;;;;;4401465;32;20073;-65
2022/04/14 12:18:48;;;;;;;6.82;3.70;;;;;;;;;;4405487;32;20176;-65
2022/04/14 12:21:27;;;;;;;6.28;3.60;;;;;;;;;;4400467;32;20061;-65
2022/04/14 12:23:55;;;;;;;5.07;3.00;;;;;;;;;;4389163;32;20073;-66
2022/04/14 12:26:23;;;;;;;6.05;3.53;;;;;;;;;;4400316;32;20085;-64
2022/04/14 12:28:50;;;;;;;6.87;3.33;;;;;;;;;;4390069;32;20098;-64
2022/04/14 12:31:17;;;;;;;5.75;3.72;;;;;;;;;;4397975;32;20516;-72
2022/04/14 12:33:58;;;;;;;6.97;3.80;;;;;;;;;;4391410;32;20081;-72
2022/04/14 12:36:38;;;;;;;8.13;3.53;;;;;;;;;;4396220;32;20081;-65
2022/04/14 12:39:18;;;;;;;6.72;3.58;;;;;;;;;;4395273;32;20150;-65
2022/04/14 12:41:45;;;;;;;7.25;3.80;;;;;;;;;;4393229;32;20085;-66
2022/04/14 12:44:17;;;;;;;6.90;3.28;;;;;;;;;;4399219;32;20093;-69
2022/04/14 12:46:48;;;;;;;5.57;3.00;;;;;;;;;;4403109;32;20080;-70
2022/04/14 12:49:18;;;;;;;5.80;3.05;;;;;;;;;;4404466;32;20086;-70
2022/04/14 12:51:54;;;;;;;5.05;3.40;;;;;;;;;;4405630;32;20073;-69
2022/04/14 12:54:23;;;;;;;6.25;3.28;;;;;;;;;;4405376;32;20065;-70
2022/04/14 12:57:03;;;;;;;6.10;3.10;;;;;;;;;;4404833;32;20076;-70
2022/04/14 12:59:30;;;;;;;11.63;3.90;;;;;;;;;;4392353;32;20440;-70
2022/04/14 13:02:01;;;;;;;6.95;3.67;;;;;;;;;;4405185;32;20081;-67
2022/04/14 13:04:37;;;;;;;9.25;3.60;;;;;;;;;;4406970;32;20085;-70
2022/04/14 13:07:04;;;;;;;6.15;4.25;;;;;;;;;;4392339;32;20088;-70
2022/04/14 13:09:31;;;;;;;6.12;3.17;;;;;;;;;;4417674;32;20074;-70
2022/04/14 13:11:58;;;;;;;9.15;3.35;;;;;;;;;;4407071;32;20505;-70
2022/04/14 13:14:29;;;;;;;11.82;3.60;;;;;;;;;;4417400;32;20088;-69
2022/04/14 13:16:57;;;;;;;9.65;4.40;;;;;;;;;;4406076;32;20165;-70
2022/04/14 13:19:25;;;;;;;9.40;4.55;;;;;;;;;;4405381;32;20084;-70
2022/04/14 13:21:52;;;;;;;7.40;4.32;;;;;;;;;;4404871;32;20521;-70
2022/04/14 13:24:19;;;;;;;7.45;4.28;;;;;;;;;;4417489;32;20089;-70
2022/04/14 13:26:47;;;;;;;9.18;4.05;;;;;;;;;;4417344;32;20085;-69
2022/04/14 13:29:14;;;;;;;11.75;4.45;;;;;;;;;;4406129;32;20101;-69
2022/04/14 13:31:41;;;;;;;10.40;4.97;;;;;;;;;;4404535;32;20511;-70
2022/04/14 13:34:09;;;;;;;9.75;4.65;;;;;;;;;;4405076;32;20073;-69
2022/04/14 13:36:36;;;;;;;10.43;4.93;;;;;;;;;;4404332;32;20075;-70
2022/04/14 13:39:04;;;;;;;12.15;5.05;;;;;;;;;;4404377;32;20528;-70
2022/04/14 13:41:31;;;;;;;10.02;4.35;;;;;;;;;;4417346;32;20066;-71
2022/04/14 13:43:58;;;;;;;8.38;5.10;;;;;;;;;;4404627;32;20069;-69
2022/04/14 13:46:25;;;;;;;9.07;4.93;;;;;;;;;;4393060;32;20088;-70
2022/04/14 13:48:52;;;;;;;10.73;5.10;;;;;;;;;;4392234;32;20089;-70
2022/04/14 13:51:19;;;;;;;10.10;4.50;;;;;;;;;;4405038;32;20148;-71
2022/04/14 13:53:45;;;;;;;10.25;4.80;;;;;;;;;;4404735;32;20162;-69
2022/04/14 13:56:12;;;;;;;7.05;4.32;;;;;;;;;;4404645;32;20157;-69
2022/04/14 13:58:39;;;;;;;13.10;4.72;;;;;;;;;;4406347;32;20069;-70
2022/04/14 14:01:06;;;;;;;9.38;4.45;;;;;;;;;;4404898;32;20089;-71
2022/04/14 14:03:33;;;;;;;9.80;4.75;;;;;;;;;;4406380;32;20564;-70
2022/04/14 14:06:00;;;;;;;6.97;4.20;;;;;;;;;;4406285;32;20071;-70
2022/04/14 14:08:28;;;;;;;7.75;4.30;;;;;;;;;;4391366;32;20548;-71
2022/04/14 14:10:56;;;;;;;9.20;4.53;;;;;;;;;;4405024;32;20081;-70
2022/04/14 14:13:22;;;;;;;7.78;4.35;;;;;;;;;;4405893;32;20160;-70
2022/04/14 14:15:49;;;;;;;7.95;4.80;;;;;;;;;;4404609;32;20553;-70
2022/04/14 14:18:16;;;;;;;6.45;4.32;;;;;;;;;;4419553;32;20081;-71
2022/04/14 14:20:46;;;;;;;8.02;4.95;;;;;;;;;;4407322;32;20078;-70
2022/04/14 14:23:13;;;;;;;8.57;4.80;;;;;;;;;;4395166;32;20080;-70
2022/04/14 14:25:40;;;;;;;9.43;5.55;;;;;;;;;;4407399;32;20093;-69
2022/04/14 14:28:08;;;;;;;9.77;4.20;;;;;;;;;;4408654;32;20161;-69
2022/04/14 14:30:35;;;;;;;10.80;4.43;;;;;;;;;;4407188;32;20081;-70
2022/04/14 14:33:01;;;;;;;9.38;4.20;;;;;;;;;;4407684;32;20152;-69
2022/04/14 14:35:28;;;;;;;9.23;4.35;;;;;;;;;;4407417;32;20148;-69
2022/04/14 14:37:55;;;;;;;6.45;4.00;;;;;;;;;;4394921;32;20136;-69
2022/04/14 14:40:22;;;;;;;5.95;4.00;;;;;;;;;;4408302;32;20101;-69
2022/04/14 14:42:49;;;;;;;6.30;4.10;;;;;;;;;;4407410;32;20522;-69
2022/04/14 14:45:16;;;;;;;6.60;3.65;;;;;;;;;;4394766;32;20070;-69